Terminal Aerodrome Forecast
Issued by NWS

Home | Current Version | Previous Version | Text Only | Print | Product List | Glossary On
Versions: 1 2 3 4 5 6 7 8 9 10 11 12 13 14
000
FTUS41 KCAR 190535
TAFBHB
TAF
KBHB 190535Z 1906/2006 20006KT P6SM SCT250
     FM191500 21015G25KT P6SM SCT250
     FM200000 24012KT P6SM BKN250
     FM200400 26010KT P6SM SCT060=

USA.gov is the U.S. government's official web portal to all federal, state and local government web resources and services.